Atwater, California
Current Conditions -  °F | °C
As of 2:45 PM on Saturday 22 Nov 2014 (Local Time) from KMER Reporting Station
Haze Haze  
Wind Chill: 57°   Ceiling: 2300
Heat Index: 57°   Visibility: 5mi
Dew Point: 57°   Wind: 12mph
Humidity: 100%   Direction: 120°ESE
Pressure: 30.15"   Gusts: NA
Location:  37.35°N, 120.6°W
Report Text: KMER 222245Z 12010KT 5SM BR SCT010 OVC023 14/14 A3015
Loading
Personal Weather Stations






























Interactive Weather Map New forecast layout! Learn more

10-Day Weather Forecast

Advertisements
Track Severe Weather on mobile